createdAt,value
2019-06-08T00:02:09.566Z,14.17
2019-06-08T00:04:40.629Z,13.35
2019-06-08T00:07:10.352Z,14.83
2019-06-08T00:12:12.965Z,14.40
2019-06-08T00:14:42.890Z,13.98
2019-06-08T00:17:27.330Z,14.85
2019-06-08T00:19:43.933Z,13.85
2019-06-08T00:22:15.716Z,13.38
2019-06-08T00:24:45.760Z,13.93
2019-06-08T00:27:16.024Z,14.28
2019-06-08T00:29:45.865Z,14.28
2019-06-08T00:32:16.148Z,14.75
2019-06-08T00:34:47.577Z,15.18
2019-06-08T00:37:20.820Z,15.23
2019-06-08T00:39:52.310Z,14.73
2019-06-08T00:42:23.742Z,15.40
2019-06-08T00:44:53.532Z,15.40
2019-06-08T00:47:24.609Z,15.13
2019-06-08T00:49:54.484Z,15.15
2019-06-08T00:52:25.556Z,15.20
2019-06-08T00:54:55.426Z,16.25
2019-06-08T00:57:26.020Z,14.83
2019-06-08T00:59:55.948Z,15.72
2019-06-08T01:02:26.796Z,14.40
2019-06-08T01:04:56.641Z,13.90
2019-06-08T01:07:26.557Z,14.73
2019-06-08T01:09:56.295Z,14.25
2019-06-08T01:14:54.969Z,17.13
2019-06-08T01:17:27.437Z,17.98
2019-06-08T01:19:57.663Z,17.02
2019-06-08T01:22:27.799Z,18.77
2019-06-08T01:24:57.726Z,18.40
2019-06-08T01:27:28.202Z,18.92
2019-06-08T01:29:57.946Z,16.70
2019-06-08T01:32:29.008Z,17.55
2019-06-08T01:35:00.285Z,18.57
2019-06-08T01:37:31.119Z,16.95
2019-06-08T01:40:01.203Z,17.05
2019-06-08T01:42:31.877Z,18.45
2019-06-08T01:45:01.889Z,18.07
2019-06-08T01:47:32.970Z,17.77
2019-06-08T01:50:02.842Z,17.40
2019-06-08T01:55:02.743Z,16.90
2019-06-08T01:57:33.839Z,17.32
2019-06-08T02:00:29.515Z,17.57
2019-06-08T02:02:39.215Z,16.62
2019-06-08T02:07:37.792Z,17.90
2019-06-08T02:12:37.186Z,17.32
2019-06-08T02:15:08.231Z,17.55
2019-06-08T02:17:38.038Z,17.77
2019-06-08T02:20:08.361Z,16.65
2019-06-08T02:22:39.391Z,17.62
2019-06-08T02:25:10.591Z,18.40
2019-06-08T02:27:40.504Z,18.37
2019-06-08T02:30:12.191Z,17.77
2019-06-08T02:32:42.543Z,17.00
2019-06-08T02:35:12.728Z,19.07
2019-06-08T02:37:42.592Z,17.65
2019-06-08T02:40:13.846Z,17.98
2019-06-08T02:42:43.791Z,17.15
2019-06-08T02:45:14.117Z,17.55
2019-06-08T02:47:43.972Z,17.92
2019-06-08T02:52:44.848Z,16.55
2019-06-08T02:55:14.548Z,17.02
2019-06-08T03:00:16.535Z,16.62
2019-06-08T03:02:47.558Z,18.65
2019-06-08T03:05:18.949Z,18.50
2019-06-08T03:07:51.665Z,18.25
2019-06-08T03:10:21.392Z,18.57
2019-06-08T03:15:33.826Z,18.60
2019-06-08T03:18:02.175Z,19.35
2019-06-08T03:20:33.375Z,19.42
2019-06-08T03:23:03.275Z,19.80
2019-06-08T03:25:41.639Z,20.55
2019-06-08T03:28:04.455Z,18.75
2019-06-08T03:33:06.222Z,18.95
2019-06-08T03:35:46.490Z,19.98
2019-06-08T03:38:08.831Z,20.55
2019-06-08T03:43:09.856Z,19.95
2019-06-08T03:45:40.788Z,20.20
2019-06-08T03:48:11.013Z,19.65
2019-06-08T03:50:42.060Z,19.77
2019-06-08T03:53:12.076Z,18.70
2019-06-08T03:55:45.025Z,18.77
2019-06-08T03:58:14.450Z,19.52
2019-06-08T04:03:15.897Z,19.00
2019-06-08T04:05:46.545Z,19.98
2019-06-08T04:08:18.154Z,18.92
2019-06-08T04:10:47.723Z,19.67
2019-06-08T04:13:18.644Z,18.48
2019-06-08T04:15:50.193Z,18.60
2019-06-08T04:18:21.502Z,17.82
2019-06-08T04:20:52.803Z,18.05
2019-06-08T04:23:22.564Z,20.48
2019-06-08T04:25:52.406Z,18.87
2019-06-08T04:28:22.106Z,17.92
2019-06-08T04:33:20.605Z,18.37
2019-06-08T04:35:50.857Z,19.92
2019-06-08T04:38:28.510Z,19.80
2019-06-08T04:43:27.232Z,18.55
2019-06-08T04:48:26.119Z,19.82
2019-06-08T04:50:55.842Z,19.73
2019-06-08T04:53:25.540Z,19.05
2019-06-08T04:58:24.053Z,18.73
2019-06-08T05:00:53.714Z,20.10
2019-06-08T05:03:24.378Z,19.62
2019-06-08T05:05:54.123Z,19.95
2019-06-08T05:10:52.605Z,20.35
2019-06-08T05:13:22.183Z,20.97
2019-06-08T05:15:51.988Z,19.12
2019-06-08T05:18:21.619Z,19.75
2019-06-08T05:20:51.583Z,19.73
2019-06-08T05:23:21.439Z,20.85
2019-06-08T05:28:19.942Z,19.55
2019-06-08T05:33:19.317Z,20.55
2019-06-08T05:38:19.515Z,18.42
2019-06-08T05:43:19.726Z,18.77
2019-06-08T05:45:49.932Z,18.35
2019-06-08T05:48:19.871Z,17.98
2019-06-08T05:53:28.656Z,18.04
2019-06-08T05:58:27.473Z,18.93
2019-06-08T06:00:57.247Z,18.90
2019-06-08T06:05:55.585Z,18.07
2019-06-08T06:08:25.473Z,18.40
2019-06-08T06:10:55.195Z,17.73
2019-06-08T06:15:55.200Z,17.30
2019-06-08T06:18:28.366Z,16.72
2019-06-08T06:21:10.559Z,17.57
2019-06-08T06:23:29.580Z,16.40
2019-06-08T06:25:59.283Z,16.42
2019-06-08T06:30:58.006Z,15.10
2019-06-08T06:35:57.060Z,14.65
2019-06-08T06:38:30.775Z,13.22
2019-06-08T06:41:00.566Z,13.18
2019-06-08T06:43:30.334Z,13.48
2019-06-08T06:46:00.095Z,14.20
2019-06-08T06:48:29.891Z,14.53
2019-06-08T06:50:59.590Z,14.20
2019-06-08T06:53:29.207Z,11.70
2019-06-08T06:58:27.703Z,11.17
2019-06-08T07:03:26.020Z,11.08
2019-06-08T07:08:24.272Z,11.80
2019-06-08T07:10:55.067Z,11.75
2019-06-08T07:13:25.865Z,12.47
2019-06-08T07:15:58.159Z,13.25
2019-06-08T07:18:26.682Z,13.10
2019-06-08T07:23:25.131Z,13.73
2019-06-08T07:28:24.142Z,15.80
2019-06-08T07:33:22.531Z,16.07
2019-06-08T07:35:53.270Z,15.05
2019-06-08T07:38:22.998Z,14.75
2019-06-08T07:43:21.505Z,16.37
2019-06-08T07:48:19.873Z,15.63
2019-06-08T07:53:19.185Z,15.23
2019-06-08T07:58:19.964Z,14.38
2019-06-08T08:03:19.978Z,13.65
2019-06-08T08:05:50.384Z,14.15
2019-06-08T08:08:20.121Z,15.35
2019-06-08T08:13:18.424Z,16.03
2019-06-08T08:15:49.070Z,14.85
2019-06-08T08:18:18.689Z,15.13
2019-06-08T08:23:18.614Z,13.98
2019-06-08T08:51:03.706Z,14.23
2019-06-08T09:53:49.638Z,13.28
2019-06-08T10:34:27.314Z,12.10
2019-06-08T10:37:06.423Z,13.20
2019-06-08T10:39:30.526Z,11.50
2019-06-08T10:42:03.168Z,12.43
2019-06-08T10:44:33.380Z,12.28
2019-06-08T10:47:04.925Z,12.75
2019-06-08T10:49:38.266Z,11.38
2019-06-08T10:52:12.017Z,10.43
2019-06-08T10:54:42.152Z,10.45
2019-06-08T11:00:13.909Z,9.55
2019-06-08T11:02:50.620Z,10.03
2019-06-08T11:05:52.085Z,10.60
2019-06-08T11:08:14.667Z,12.07
2019-06-08T11:14:41.374Z,12.65
2019-06-08T11:17:33.347Z,14.13
2019-06-08T11:20:11.853Z,12.60
2019-06-08T11:52:51.216Z,10.30
2019-06-08T11:58:20.295Z,9.28
2019-06-08T12:38:54.312Z,12.58
2019-06-08T12:41:31.494Z,11.22
2019-06-08T12:44:20.401Z,9.30
2019-06-08T12:46:41.399Z,11.05
2019-06-08T12:49:12.701Z,9.98
2019-06-08T12:51:42.467Z,10.05
2019-06-08T12:54:12.754Z,11.45
2019-06-08T12:56:43.665Z,10.65
2019-06-08T12:59:17.003Z,10.38
2019-06-08T13:01:45.518Z,9.83
2019-06-08T13:04:15.864Z,9.95
2019-06-08T13:06:48.358Z,9.73
2019-06-08T13:09:19.319Z,10.15
2019-06-08T13:11:50.735Z,8.83
2019-06-08T13:14:20.840Z,8.00
2019-06-08T13:16:52.946Z,9.08
2019-06-08T13:19:21.989Z,9.68
2019-06-08T13:21:51.581Z,8.45
2019-06-08T13:24:21.226Z,8.28
2019-06-08T13:26:50.942Z,9.55
2019-06-08T13:29:22.229Z,8.70
2019-06-08T13:31:52.003Z,7.95
2019-06-08T13:34:24.024Z,7.67
2019-06-08T13:36:52.719Z,8.10
2019-06-08T13:39:23.141Z,7.65
2019-06-08T13:41:52.991Z,8.08
2019-06-08T13:44:22.656Z,8.00
2019-06-08T13:46:52.368Z,7.65
2019-06-08T13:49:26.843Z,7.71
2019-06-08T13:51:54.563Z,8.65
2019-06-08T13:54:24.397Z,7.80
2019-06-08T13:56:53.999Z,7.97
2019-06-08T13:59:27.793Z,8.73
2019-06-08T14:01:57.811Z,7.80
2019-06-08T14:04:27.265Z,8.65
2019-06-08T14:06:58.146Z,9.10
2019-06-08T14:09:31.389Z,8.83
2019-06-08T14:12:00.380Z,9.73
2019-06-08T14:14:32.868Z,8.90
2019-06-08T14:17:01.323Z,9.95
2019-06-08T14:19:31.620Z,8.70
2019-06-08T14:22:01.557Z,9.05
2019-06-08T14:24:34.528Z,7.42
2019-06-08T14:27:02.352Z,9.68
2019-06-08T14:29:32.000Z,9.80
2019-06-08T14:32:01.551Z,8.73
2019-06-08T14:34:32.995Z,8.70
2019-06-08T14:37:02.620Z,8.63
2019-06-08T14:39:32.344Z,9.00
2019-06-08T14:42:01.896Z,8.88
2019-06-08T14:44:33.879Z,8.80
2019-06-08T14:47:07.705Z,9.20
2019-06-08T14:49:38.444Z,8.33
2019-06-08T14:52:10.688Z,8.50
2019-06-08T14:54:39.258Z,8.68
2019-06-08T14:57:08.891Z,7.75
2019-06-08T14:59:38.580Z,8.18
2019-06-08T15:02:08.707Z,8.88
2019-06-08T15:04:40.073Z,8.23
2019-06-08T15:07:09.783Z,8.50
2019-06-08T15:09:39.318Z,8.48
2019-06-08T15:12:09.455Z,8.80
2019-06-08T15:14:39.084Z,9.20
2019-06-08T15:17:08.775Z,8.83
2019-06-08T15:19:38.439Z,9.15
2019-06-08T15:22:08.776Z,9.03
2019-06-08T15:24:39.268Z,7.28
2019-06-08T15:27:08.892Z,7.35
2019-06-08T15:29:38.422Z,7.40
2019-06-08T15:32:33.300Z,8.00
2019-06-08T15:35:00.430Z,7.05
2019-06-08T15:37:31.105Z,8.43
2019-06-08T15:40:01.226Z,6.95
2019-06-08T15:42:31.968Z,7.35
2019-06-08T15:45:02.028Z,7.70
2019-06-08T15:47:32.412Z,7.37
2019-06-08T15:50:02.128Z,7.42
2019-06-08T15:52:33.169Z,6.78
2019-06-08T15:55:03.228Z,6.42
2019-06-08T15:57:37.854Z,6.92
2019-06-08T16:00:09.625Z,7.75
2019-06-08T16:02:38.847Z,7.28
2019-06-08T16:05:08.598Z,6.60
2019-06-08T16:07:38.146Z,7.58
2019-06-08T16:10:08.174Z,7.70
2019-06-08T16:12:37.824Z,6.65
2019-06-08T16:15:07.821Z,7.05
2019-06-08T16:17:37.444Z,7.03
2019-06-08T16:20:07.338Z,7.58
2019-06-08T16:22:36.884Z,6.65
2019-06-08T16:25:07.759Z,6.72
2019-06-08T16:27:37.418Z,6.33
2019-06-08T16:30:09.575Z,7.03
2019-06-08T16:32:39.767Z,6.78
2019-06-08T16:35:10.104Z,7.17
2019-06-08T16:37:39.944Z,6.67
2019-06-08T16:40:12.264Z,6.70
2019-06-08T16:42:41.812Z,7.35
2019-06-08T16:45:12.555Z,6.85
2019-06-08T16:47:43.700Z,6.60
2019-06-08T16:50:24.165Z,7.35
2019-06-08T16:52:45.021Z,6.53
2019-06-08T16:55:14.722Z,7.28
2019-06-08T16:57:44.322Z,6.65
2019-06-08T17:00:31.623Z,6.53
2019-06-08T17:03:04.743Z,7.03
2019-06-08T17:05:35.261Z,7.05
2019-06-08T17:08:04.922Z,6.75
2019-06-08T17:10:34.662Z,6.83
2019-06-08T17:13:04.287Z,6.92
2019-06-08T17:15:34.128Z,7.67
2019-06-08T17:18:03.809Z,7.05
2019-06-08T17:20:34.055Z,7.47
2019-06-08T17:23:03.784Z,7.40
2019-06-08T17:25:34.421Z,7.72
2019-06-08T17:28:04.176Z,7.75
2019-06-08T17:30:35.482Z,7.90
2019-06-08T17:33:05.171Z,7.35
2019-06-08T17:35:35.599Z,7.83
2019-06-08T17:38:05.342Z,7.87
2019-06-08T17:40:35.822Z,8.18
2019-06-08T17:43:05.560Z,7.67
2019-06-08T17:45:36.276Z,8.08
2019-06-08T17:48:05.915Z,7.55
2019-06-08T17:50:36.543Z,7.75
2019-06-08T17:53:06.279Z,7.97
2019-06-08T17:55:35.819Z,8.28
2019-06-08T17:58:06.557Z,8.00
2019-06-08T18:00:37.391Z,6.87
2019-06-08T18:03:08.355Z,7.97
2019-06-08T18:05:41.964Z,7.90
2019-06-08T18:08:09.329Z,8.85
2019-06-08T18:10:40.336Z,8.05
2019-06-08T22:03:41.355Z,10.50
2019-06-08T22:06:11.055Z,11.12
2019-06-08T22:11:13.972Z,10.85
2019-06-08T22:13:43.599Z,11.57
2019-06-08T22:18:42.052Z,11.17
2019-06-08T22:21:18.215Z,11.73
2019-06-08T22:23:49.616Z,11.10
2019-06-08T22:26:21.447Z,11.00
2019-06-08T22:28:52.563Z,10.90
2019-06-08T22:31:23.267Z,10.85
2019-06-08T22:33:54.303Z,11.33
2019-06-08T22:36:27.583Z,11.93
2019-06-08T22:39:00.274Z,11.90
2019-06-08T22:41:28.510Z,13.62
2019-06-08T22:44:00.748Z,12.37
2019-06-08T22:46:33.819Z,11.60
2019-06-08T22:49:07.835Z,12.20
2019-06-08T22:51:38.314Z,12.35
2019-06-08T22:54:08.126Z,11.63
2019-06-08T22:56:38.066Z,11.75
2019-06-08T22:59:09.413Z,12.60
2019-06-08T23:01:39.229Z,12.23
2019-06-08T23:06:39.877Z,12.78
2019-06-08T23:09:09.837Z,11.80
2019-06-08T23:11:39.774Z,13.50
2019-06-08T23:14:13.468Z,12.80
2019-06-08T23:16:44.228Z,12.85
2019-06-08T23:19:14.121Z,14.30
2019-06-08T23:21:47.522Z,14.07
2019-06-08T23:24:23.475Z,14.23
2019-06-08T23:26:53.265Z,14.50
2019-06-08T23:29:27.372Z,14.18
2019-06-08T23:32:01.089Z,14.45
2019-06-08T23:34:30.075Z,13.83
2019-06-08T23:37:05.873Z,13.32
2019-06-08T23:39:37.503Z,13.98
2019-06-08T23:42:09.711Z,14.15
2019-06-08T23:44:41.413Z,13.95
2019-06-08T23:47:11.077Z,13.95
2019-06-08T23:49:40.893Z,14.13
2019-06-08T23:52:11.864Z,13.55
2019-06-08T23:54:43.255Z,13.98
2019-06-08T23:57:18.027Z,14.25
2019-06-08T23:59:49.209Z,13.58
